Terminal Aerodrome Forecast
Issued by NWS

Home | Current Version | Previous Version | Text Only | Print | Product List | Glossary On
Versions: 1 2 3 4 5 6 7 8 9 10 11 12 13 14 15
000
FTUS41 KBTV 250520
TAFMPV
TAF
KMPV 250520Z 2506/2606 VRB05KT P6SM BKN250
     FM251000 14006KT P6SM VCSH OVC140
     FM251200 15015G23KT 4SM -SNPL BR OVC050
     FM251800 15019G29KT 4SM -FZRAPL BR OVC025
     FM252200 16014G21KT P6SM VCSH OVC025
     FM260000 17012KT P6SM OVC035
     FM260300 18008KT P6SM BKN060=

USA.gov is the U.S. government's official web portal to all federal, state and local government web resources and services.